Time;durP1;ratioP1;P1;durP2;ratioP2;P2;SDS_P1;SDS_P2;PMS_P1;PMS_P2;Temp;Humidity;BMP_temperature;BMP_pressure;BME280_temperature;BME280_humidity;BME280_pressure;Samples;Min_cycle;Max_cycle;Signal;HPM_P1;HPM_P2
2023/08/11 07:01:21;;;;;;;0.10;0.10;;;26.00;99.90;29.20;101826.00;;;;6219155;22;1408610;-65
2023/08/11 07:03:56;;;;;;;0.10;0.10;;;25.80;99.90;30.10;101795.00;;;;6246847;23;20162;-65
2023/08/11 07:06:34;;;;;;;0.10;0.10;;;26.60;99.90;29.90;101813.00;;;;6246530;23;20158;-65
2023/08/11 07:09:02;;;;;;;0.08;0.08;;;26.90;99.90;31.20;101799.00;;;;6246170;23;20149;-65
2023/08/11 07:11:28;;;;;;;0.38;0.38;;;27.20;99.90;31.10;101791.00;;;;6221131;23;20241;-65
2023/08/11 07:13:54;;;;;;;0.15;0.15;;;27.50;99.90;30.40;101806.00;;;;6220982;23;20190;-65
2023/08/11 07:16:23;;;;;;;0.10;0.10;;;27.20;99.90;30.70;101784.00;;;;6221247;23;20240;-65
2023/08/11 07:18:49;;;;;;;0.50;0.50;;;27.10;99.90;30.20;101784.00;;;;6221123;23;20518;-65
2023/08/11 07:21:15;;;;;;;0.13;0.13;;;27.10;99.90;31.10;101805.00;;;;6221216;23;20154;-65
2023/08/11 07:23:44;;;;;;;0.10;0.10;;;27.60;99.90;30.80;101783.00;;;;6246229;23;20569;-65
2023/08/11 07:26:10;;;;;;;0.10;0.10;;;27.60;99.90;30.30;101820.00;;;;6246315;23;20191;-65
2023/08/11 07:28:36;;;;;;;0.10;0.10;;;27.40;99.90;31.90;101806.00;;;;6221061;23;20493;-66
2023/08/11 07:31:02;;;;;;;0.10;0.10;;;28.00;99.90;30.20;101834.00;;;;6245848;23;20153;-65
2023/08/11 07:33:28;;;;;;;0.10;0.10;;;27.40;99.90;30.50;101838.00;;;;6246276;23;20236;-65
2023/08/11 07:35:54;;;;;;;0.10;0.10;;;27.30;99.90;31.40;101829.00;;;;6220815;23;20215;-66
2023/08/11 07:38:20;;;;;;;0.10;0.10;;;27.30;99.90;34.10;101775.00;;;;6246366;23;20149;-65
2023/08/11 07:40:47;;;;;;;0.20;0.20;;;29.30;99.90;33.50;101801.00;;;;6245866;23;20224;-66
2023/08/11 07:43:14;;;;;;;3.13;0.40;;;30.30;99.90;33.00;101800.00;;;;6246168;23;20201;-65
2023/08/11 07:45:40;;;;;;;0.00;0.00;;;30.00;99.90;33.30;101799.00;;;;6245673;23;20696;-65
2023/08/11 07:48:07;;;;;;;0.10;0.10;;;29.50;99.90;33.30;101792.00;;;;6220429;23;20291;-65
2023/08/11 07:50:36;;;;;;;0.10;0.10;;;29.50;99.90;34.20;101783.00;;;;6245933;23;20145;-66
2023/08/11 07:53:03;;;;;;;0.10;0.10;;;29.80;99.90;34.30;101784.00;;;;6220418;23;20157;-66
2023/08/11 07:55:29;;;;;;;0.10;0.10;;;29.80;99.90;33.90;101786.00;;;;6245275;23;20141;-66
2023/08/11 07:57:55;;;;;;;0.45;0.45;;;29.90;99.90;33.20;101794.00;;;;6245578;23;20145;-66
2023/08/11 08:00:24;;;;;;;0.10;0.10;;;29.40;99.90;31.00;101854.00;;;;6220092;23;20236;-66
2023/08/11 08:03:07;;;;;;;1.00;0.93;;;28.30;99.90;29.30;101883.00;;;;6220985;23;20177;-65
2023/08/11 08:05:36;;;;;;;0.20;0.20;;;27.20;99.90;31.50;101850.00;;;;6220446;23;20245;-65
2023/08/11 08:08:03;;;;;;;0.10;0.10;;;27.30;99.90;30.80;101850.00;;;;6245498;23;20138;-66
2023/08/11 08:10:32;;;;;;;0.38;0.38;;;27.50;99.90;30.80;101870.00;;;;6220694;23;20192;-65
2023/08/11 08:12:58;;;;;;;0.10;0.10;;;27.30;99.90;31.20;101857.00;;;;6220085;23;20164;-66
2023/08/11 08:15:43;;;;;;;0.10;0.10;;;27.40;99.90;30.60;101864.00;;;;6245493;23;20139;-65
2023/08/11 08:18:09;;;;;;;0.10;0.10;;;27.30;99.90;31.90;101853.00;;;;6246015;23;20157;-65
2023/08/11 08:20:36;;;;;;;0.10;0.10;;;27.80;99.90;33.50;101836.00;;;;6245257;23;20590;-66
2023/08/11 08:23:03;;;;;;;0.10;0.10;;;28.80;99.90;34.40;101822.00;;;;6246823;22;20165;-66
2023/08/11 08:25:29;;;;;;;0.10;0.10;;;29.60;99.90;33.00;101836.00;;;;6245517;23;20162;-65
2023/08/11 08:27:55;;;;;;;0.10;0.10;;;29.30;99.90;34.70;101789.00;;;;6245324;23;20225;-66
2023/08/11 08:30:59;;;;;;;0.40;0.40;;;30.30;99.90;34.40;101802.00;;;;6219990;23;20496;-65
2023/08/11 08:33:25;;;;;;;0.10;0.10;;;30.20;99.90;36.10;101783.00;;;;6240063;23;20272;-66
2023/08/11 08:35:51;;;;;;;0.30;0.30;;;31.40;99.90;37.50;101754.00;;;;6245465;23;20142;-66
2023/08/11 08:38:23;;;;;;;0.10;0.10;;;32.70;99.90;36.20;101763.00;;;;6246856;23;20236;-66
2023/08/11 08:40:49;;;;;;;0.80;0.47;;;32.80;99.90;30.70;101872.00;;;;6245636;23;20225;-65
2023/08/11 08:43:16;;;;;;;0.10;0.10;;;29.40;99.90;31.50;101870.00;;;;6245302;23;20162;-65
2023/08/11 08:45:44;;;;;;;0.90;0.75;;;28.40;99.90;32.20;101870.00;;;;6245663;23;20165;-65
2023/08/11 08:48:21;;;;;;;0.10;0.10;;;29.00;99.90;35.50;101794.00;;;;6220060;23;20168;-66
2023/08/11 08:50:49;;;;;;;0.10;0.10;;;30.50;99.90;34.40;101835.00;;;;6245490;23;20177;-65
2023/08/11 08:53:15;;;;;;;0.13;0.13;;;30.70;99.90;31.90;101872.00;;;;6220114;23;20157;-65
2023/08/11 08:55:42;;;;;;;0.15;0.15;;;29.50;99.90;32.60;101854.00;;;;6245757;23;20142;-65
2023/08/11 08:58:11;;;;;;;0.15;0.15;;;28.90;99.90;35.10;101821.00;;;;6245289;23;20189;-66
2023/08/11 09:00:37;;;;;;;0.95;0.95;;;30.40;99.90;36.20;101809.00;;;;6245276;23;20162;-66
2023/08/11 09:03:05;;;;;;;0.10;0.10;;;31.60;99.90;34.60;101837.00;;;;6245378;23;20216;-65
2023/08/11 09:05:33;;;;;;;0.82;0.65;;;31.10;99.90;34.80;101832.00;;;;6245087;23;20513;-66
2023/08/11 09:07:59;;;;;;;0.10;0.10;;;31.50;99.90;34.10;101861.00;;;;6245245;23;20150;-65
2023/08/11 09:10:29;;;;;;;0.65;0.65;;;30.50;99.90;34.70;101849.00;;;;6219682;23;20158;-65
2023/08/11 09:12:56;;;;;;;0.08;0.08;;;31.20;99.90;30.90;101897.00;;;;6245457;23;20152;-65
2023/08/11 09:15:22;;;;;;;0.40;0.40;;;29.50;99.90;29.50;101904.00;;;;6245083;23;20158;-65
2023/08/11 09:17:50;;;;;;;0.40;0.40;;;27.70;99.90;31.90;101900.00;;;;6244866;23;20194;-65
2023/08/11 09:20:17;;;;;;;5.25;1.05;;;28.00;99.90;32.50;101850.00;;;;6244947;23;20146;-66
2023/08/11 09:22:43;;;;;;;0.93;0.75;;;29.30;99.90;29.90;101890.00;;;;6219337;23;20184;-65
2023/08/11 09:25:14;;;;;;;0.17;0.17;;;27.90;99.90;30.80;101857.00;;;;6219412;23;20244;-65
2023/08/11 09:27:40;;;;;;;0.88;0.88;;;28.10;99.90;31.80;101883.00;;;;6245084;23;20220;-65
2023/08/11 09:30:10;;;;;;;0.20;0.20;;;28.30;99.90;34.20;101852.00;;;;6245061;23;20156;-65
2023/08/11 09:32:36;;;;;;;0.20;0.20;;;29.60;99.90;34.30;101838.00;;;;6245280;23;20186;-65
2023/08/11 09:35:08;;;;;;;0.38;0.35;;;30.20;99.90;31.60;101887.00;;;;6244610;23;20280;-65
2023/08/11 09:37:35;;;;;;;0.10;0.10;;;29.80;99.90;31.40;101884.00;;;;6219916;23;20150;-66
2023/08/11 09:40:04;;;;;;;0.10;0.10;;;28.80;99.90;32.80;101870.00;;;;6244665;23;20510;-66
2023/08/11 09:42:32;;;;;;;0.20;0.20;;;29.50;99.90;34.50;101848.00;;;;6220070;23;20174;-65
2023/08/11 09:45:01;;;;;;;3.50;1.42;;;30.30;99.90;34.30;101845.00;;;;6219758;23;20657;-65
2023/08/11 09:47:33;;;;;;;0.20;0.20;;;30.60;99.90;33.70;101864.00;;;;6245680;22;20134;-65
2023/08/11 09:50:03;;;;;;;0.08;0.08;;;30.00;99.90;33.70;101874.00;;;;6244908;23;20208;-65
2023/08/11 09:52:33;;;;;;;0.38;0.38;;;30.00;99.90;33.60;101860.00;;;;6244453;23;20638;-65
2023/08/11 09:55:06;;;;;;;0.38;0.30;;;30.20;99.90;33.80;101851.00;;;;6244726;23;20149;-65
2023/08/11 09:57:45;;;;;;;1.15;1.13;;;30.70;99.90;33.60;101855.00;;;;6246130;22;20577;-65
2023/08/11 10:00:19;;;;;;;0.10;0.10;;;31.00;99.90;33.70;101863.00;;;;6244293;23;20142;-66
2023/08/11 10:03:10;;;;;;;0.30;0.30;;;30.40;99.90;33.60;101842.00;;;;6245997;22;20177;-65
2023/08/11 10:05:49;;;;;;;0.45;0.45;;;29.80;99.90;33.90;101855.00;;;;6219551;23;20562;-65
2023/08/11 10:08:25;;;;;;;0.90;0.90;;;30.40;99.90;33.30;101863.00;;;;6244347;23;20145;-65
2023/08/11 10:10:54;;;;;;;0.20;0.20;;;30.60;99.90;34.10;101846.00;;;;6244453;23;20169;-65
2023/08/11 10:13:28;;;;;;;0.10;0.10;;;30.80;99.90;35.40;101825.00;;;;6244630;23;20157;-65
2023/08/11 10:15:56;;;;;;;0.65;0.43;;;31.40;99.90;36.20;101797.00;;;;6219664;23;20533;-66
2023/08/11 10:18:28;;;;;;;0.10;0.10;;;32.00;99.90;33.30;101860.00;;;;6219071;23;20587;-65
2023/08/11 10:33:34;;;;;;;2.75;1.42;;;29.30;99.90;31.20;101860.00;;;;5090344;28;21077;-66
2023/08/11 10:36:01;;;;;;;0.17;0.17;;;28.90;99.90;33.60;101862.00;;;;5068997;28;20189;-64
2023/08/11 10:38:31;;;;;;;0.10;0.10;;;29.60;99.90;33.50;101876.00;;;;5068851;28;20243;-64
2023/08/11 10:41:10;;;;;;;0.22;0.22;;;29.80;99.90;36.00;101842.00;;;;5042868;28;20190;-64
2023/08/11 10:43:47;;;;;;;0.10;0.10;;;31.30;99.90;35.90;101838.00;;;;5065012;28;20185;-64
2023/08/11 10:46:28;;;;;;;0.10;0.10;;;31.90;99.90;35.30;101839.00;;;;5037133;28;20653;-64
2023/08/11 10:49:41;;;;;;;0.10;0.10;;;32.20;99.90;35.70;101835.00;;;;5068708;28;20537;-64
2023/08/11 10:52:12;;;;;;;0.52;0.25;;;31.70;99.90;36.50;101803.00;;;;5063141;28;20565;-65
2023/08/11 10:54:51;;;;;;;0.43;0.43;;;32.40;99.90;33.90;101855.00;;;;5052410;28;20537;-64
2023/08/11 10:57:17;;;;;;;0.10;0.10;;;31.40;99.90;35.50;101844.00;;;;5060718;28;20227;-65
2023/08/11 10:59:52;;;;;;;0.70;0.57;;;31.40;99.90;37.00;101819.00;;;;5038949;28;20213;-65
2023/08/11 11:02:21;;;;;;;0.30;0.30;;;32.30;99.90;33.50;101877.00;;;;5057761;28;20686;-65
2023/08/11 11:04:51;;;;;;;0.10;0.10;;;31.20;99.90;33.40;101893.00;;;;5052049;28;20739;-65
2023/08/11 11:07:38;;;;;;;0.10;0.10;;;30.00;99.90;34.20;101873.00;;;;5069867;28;20192;-65
2023/08/11 11:10:14;;;;;;;0.10;0.10;;;30.40;99.90;35.20;101855.00;;;;5048776;28;20194;-65
2023/08/11 11:12:46;;;;;;;0.22;0.22;;;31.20;99.90;33.80;101873.00;;;;5047835;28;20284;-65
2023/08/11 11:15:14;;;;;;;0.10;0.10;;;31.00;99.90;33.40;101885.00;;;;5064383;28;20189;-65
2023/08/11 11:17:40;;;;;;;0.50;0.50;;;30.50;99.90;33.00;101901.00;;;;5045459;28;20190;-65
2023/08/11 11:20:10;;;;;;;0.28;0.28;;;30.40;99.90;33.20;101894.00;;;;5068031;28;20220;-65
2023/08/11 11:22:47;;;;;;;0.20;0.20;;;30.10;99.90;35.10;101873.00;;;;5035423;28;20190;-65
2023/08/11 11:25:26;;;;;;;1.58;0.17;;;30.70;99.90;35.30;101854.00;;;;5059944;28;20588;-65
2023/08/11 11:27:52;;;;;;;0.68;0.68;;;31.50;99.90;32.40;101907.00;;;;5052034;28;20193;-65
2023/08/11 11:30:29;;;;;;;0.10;0.10;;;30.70;99.90;32.10;101909.00;;;;5048252;28;20195;-65
2023/08/11 11:32:58;;;;;;;0.30;0.30;;;29.20;99.90;32.80;101880.00;;;;5066504;28;20262;-65
2023/08/11 11:35:27;;;;;;;0.10;0.10;;;29.10;99.90;34.30;101878.00;;;;5069002;28;20194;-65
2023/08/11 11:37:54;;;;;;;0.20;0.20;;;30.00;99.90;32.80;101895.00;;;;5051007;28;20189;-65
2023/08/11 11:40:25;;;;;;;0.30;0.30;;;30.20;99.90;32.40;101900.00;;;;5046960;28;20231;-65
2023/08/11 11:42:51;;;;;;;0.22;0.22;;;29.80;99.90;33.90;101895.00;;;;5046893;28;20518;-65
2023/08/11 11:45:20;;;;;;;0.60;0.60;;;30.10;99.90;33.30;101898.00;;;;5054310;28;20675;-65
2023/08/11 11:47:47;;;;;;;0.10;0.10;;;30.10;99.90;34.20;101900.00;;;;5054661;28;20644;-65
2023/08/11 11:50:20;;;;;;;0.25;0.25;;;30.10;99.90;34.40;101864.00;;;;5037928;28;20182;-65
2023/08/11 11:52:48;;;;;;;0.43;0.43;;;30.40;99.90;32.60;101907.00;;;;5037570;28;20225;-65
2023/08/11 11:55:17;;;;;;;0.47;0.47;;;30.10;99.90;33.60;101887.00;;;;5046551;28;20635;-65
2023/08/11 11:57:43;;;;;;;0.15;0.15;;;29.80;99.90;33.50;101900.00;;;;5033145;28;20198;-66
2023/08/11 12:00:16;;;;;;;1.42;1.33;;;29.90;99.90;32.10;101911.00;;;;5049173;28;20167;-65
2023/08/11 12:02:43;;;;;;;0.45;0.45;;;29.50;99.90;33.40;101881.00;;;;5054029;28;20201;-65
2023/08/11 12:05:20;;;;;;;0.10;0.10;;;29.60;99.90;34.00;101881.00;;;;5037608;28;20179;-65
2023/08/11 12:07:46;;;;;;;0.10;0.10;;;30.10;99.90;32.50;101904.00;;;;5037478;28;20178;-65
2023/08/11 12:10:21;;;;;;;0.93;0.63;;;29.60;99.90;30.80;101909.00;;;;5053935;28;20189;-66
2023/08/11 12:12:58;;;;;;;0.10;0.10;;;28.70;99.90;33.60;101895.00;;;;5032588;28;20693;-66
2023/08/11 12:15:24;;;;;;;0.70;0.65;;;29.10;99.90;32.00;101909.00;;;;5053739;28;20652;-66
2023/08/11 12:17:53;;;;;;;7.13;0.60;;;29.10;99.90;31.00;101897.00;;;;5037133;28;20205;-66
2023/08/11 12:20:24;;;;;;;3.15;2.83;;;28.40;99.90;31.50;101888.00;;;;5053152;28;20197;-66
2023/08/11 12:22:52;;;;;;;0.13;0.13;;;28.40;99.90;32.90;101882.00;;;;5035942;28;20194;-66
2023/08/11 12:25:21;;;;;;;0.10;0.10;;;28.80;99.90;33.30;101875.00;;;;5032608;28;20186;-66
2023/08/11 12:27:53;;;;;;;2.38;2.15;;;29.40;99.90;32.30;101889.00;;;;5053437;28;20186;-66
2023/08/11 12:30:20;;;;;;;0.10;0.10;;;29.10;99.90;33.00;101875.00;;;;5054745;28;20643;-66
2023/08/11 12:32:48;;;;;;;0.20;0.20;;;29.10;99.90;32.30;101887.00;;;;5035055;28;20222;-66
2023/08/11 12:35:17;;;;;;;0.45;0.45;;;29.20;99.90;32.10;101877.00;;;;5053701;28;20186;-66
2023/08/11 12:37:46;;;;;;;1.30;0.50;;;28.90;99.90;32.70;101839.00;;;;5031362;28;20274;-65
2023/08/11 12:40:22;;;;;;;0.10;0.10;;;28.90;99.90;34.20;101836.00;;;;5016115;28;20223;-65
2023/08/11 12:42:51;;;;;;;0.68;0.68;;;29.60;99.90;31.20;101883.00;;;;5053158;28;20189;-64
2023/08/11 12:45:22;;;;;;;0.28;0.28;;;29.10;99.90;32.60;101857.00;;;;5027023;28;20240;-65
2023/08/11 12:47:54;;;;;;;1.45;0.73;;;28.80;99.90;33.30;101871.00;;;;5020188;28;20655;-65
2023/08/11 12:50:28;;;;;;;0.10;0.10;;;29.20;99.90;33.40;101878.00;;;;5053190;28;20182;-65
2023/08/11 12:53:06;;;;;;;0.50;0.50;;;29.40;99.90;33.10;101874.00;;;;5036838;28;20225;-65
2023/08/11 12:55:34;;;;;;;2.03;0.32;;;29.70;99.90;32.70;101877.00;;;;5052527;28;20174;-65
2023/08/11 12:58:07;;;;;;;0.10;0.10;;;29.60;99.90;34.10;101872.00;;;;5054113;28;20277;-65
2023/08/11 13:00:38;;;;;;;1.77;1.73;;;29.90;99.90;33.10;101879.00;;;;5049951;28;20178;-65
2023/08/11 13:03:10;;;;;;;2.22;2.05;;;29.60;99.90;31.10;101876.00;;;;5036131;28;20190;-64
2023/08/11 13:05:39;;;;;;;0.20;0.20;;;28.70;99.90;31.80;101860.00;;;;5028444;28;20186;-64
2023/08/11 13:08:08;;;;;;;0.10;0.10;;;28.30;99.90;32.80;101869.00;;;;5035796;28;20644;-65
2023/08/11 13:10:42;;;;;;;2.63;1.92;;;28.70;99.90;33.50;101876.00;;;;5029739;28;20230;-65
2023/08/11 13:13:08;;;;;;;0.10;0.10;;;29.50;99.90;32.80;101847.00;;;;5032799;28;20552;-64
2023/08/11 13:15:39;;;;;;;0.75;0.75;;;29.20;99.90;32.20;101879.00;;;;5052089;28;20186;-65
2023/08/11 13:18:05;;;;;;;0.10;0.10;;;29.20;99.90;33.90;101865.00;;;;5042235;28;20653;-66
2023/08/11 13:20:31;;;;;;;1.85;1.33;;;29.60;99.90;34.60;101869.00;;;;5052109;28;20186;-65
2023/08/11 13:22:57;;;;;;;1.92;0.90;;;30.20;99.90;34.40;101855.00;;;;5032704;28;20198;-65
2023/08/11 13:25:32;;;;;;;0.10;0.10;;;30.50;99.90;34.60;101845.00;;;;5028810;28;20647;-65
2023/08/11 13:27:58;;;;;;;0.10;0.10;;;30.50;99.90;34.80;101880.00;;;;5034060;28;20177;-65
2023/08/11 13:30:31;;;;;;;1.20;1.08;;;30.70;99.90;34.10;101883.00;;;;5035850;28;20185;-65
2023/08/11 13:32:59;;;;;;;3.00;2.88;;;30.60;99.90;33.50;101876.00;;;;5035628;28;20214;-65
2023/08/11 13:35:26;;;;;;;0.10;0.10;;;30.30;99.90;34.00;101874.00;;;;5052929;28;20236;-65
2023/08/11 13:37:58;;;;;;;0.40;0.40;;;30.10;99.90;33.80;101882.00;;;;5029551;28;20239;-65
2023/08/11 13:40:26;;;;;;;0.13;0.13;;;30.10;99.90;34.10;101878.00;;;;5052598;28;20239;-65
2023/08/11 13:43:04;;;;;;;0.45;0.45;;;30.10;99.90;33.90;101878.00;;;;5035662;28;20206;-65
2023/08/11 13:45:29;;;;;;;0.10;0.10;;;30.10;99.90;33.80;101875.00;;;;5040703;28;20189;-65
2023/08/11 13:47:55;;;;;;;0.10;0.10;;;29.80;99.90;33.60;101874.00;;;;5051398;28;20535;-65
2023/08/11 13:50:24;;;;;;;0.68;0.68;;;29.70;99.90;34.10;101875.00;;;;5035474;28;20209;-65
2023/08/11 13:52:57;;;;;;;0.20;0.20;;;29.80;99.90;34.00;101878.00;;;;5046045;28;20201;-65
2023/08/11 13:55:26;;;;;;;0.10;0.10;;;29.90;99.90;33.40;101874.00;;;;5033037;28;20195;-65
2023/08/11 13:57:52;;;;;;;0.10;0.10;;;29.80;99.90;34.20;101833.00;;;;5016001;28;20187;-65
2023/08/11 14:00:20;;;;;;;0.20;0.20;;;30.00;99.90;34.40;101860.00;;;;5035626;28;20697;-65
2023/08/11 14:02:47;;;;;;;0.10;0.10;;;30.20;99.90;34.50;101862.00;;;;5032928;28;20448;-65
2023/08/11 14:05:13;;;;;;;0.10;0.10;;;30.50;99.90;33.90;101864.00;;;;5035497;28;20174;-65
2023/08/11 14:07:48;;;;;;;0.20;0.20;;;30.30;99.90;33.80;101862.00;;;;5035234;28;20628;-65
2023/08/11 14:10:20;;;;;;;0.10;0.10;;;29.90;99.90;33.30;101847.00;;;;5051989;28;20656;-65
2023/08/11 14:12:46;;;;;;;0.10;0.10;;;29.80;99.90;34.60;101831.00;;;;5049963;28;20206;-65
2023/08/11 14:15:20;;;;;;;1.20;1.20;;;30.20;99.90;34.30;101860.00;;;;5035303;28;20556;-65
2023/08/11 14:17:46;;;;;;;0.10;0.10;;;30.30;99.90;34.20;101858.00;;;;5018881;28;20189;-65
2023/08/11 14:20:15;;;;;;;0.38;0.38;;;30.30;99.90;34.40;101861.00;;;;5051638;28;20208;-65
2023/08/11 14:22:41;;;;;;;0.32;0.32;;;30.40;99.90;34.40;101858.00;;;;5018461;28;20194;-65
2023/08/11 14:25:10;;;;;;;0.10;0.10;;;30.50;99.90;33.50;101858.00;;;;5031574;28;20186;-65
2023/08/11 14:27:41;;;;;;;0.10;0.10;;;30.00;99.90;33.60;101831.00;;;;5050913;28;20184;-65
2023/08/11 14:30:08;;;;;;;0.10;0.10;;;29.80;99.90;33.90;101849.00;;;;5051625;28;20196;-65
2023/08/11 14:32:43;;;;;;;0.10;0.10;;;29.90;99.90;34.20;101848.00;;;;5030139;28;20210;-65
2023/08/11 14:35:08;;;;;;;0.25;0.25;;;30.10;99.90;34.40;101834.00;;;;5025578;28;20213;-65
2023/08/11 14:37:37;;;;;;;0.28;0.28;;;30.30;99.90;34.00;101849.00;;;;5020765;28;20209;-65
2023/08/11 14:40:07;;;;;;;0.10;0.10;;;30.30;99.90;34.40;101851.00;;;;5048987;28;20237;-65
2023/08/11 14:42:33;;;;;;;0.15;0.15;;;30.30;99.90;34.20;101853.00;;;;5035236;28;20205;-65
2023/08/11 14:45:05;;;;;;;0.45;0.45;;;30.20;99.90;32.90;101844.00;;;;5035259;28;20641;-65
2023/08/11 14:47:31;;;;;;;0.30;0.30;;;29.50;99.90;33.70;101831.00;;;;5028434;28;20583;-65
2023/08/11 14:50:03;;;;;;;0.10;0.10;;;29.50;99.90;33.90;101842.00;;;;5011494;28;20222;-65
2023/08/11 14:52:32;;;;;;;0.10;0.10;;;29.60;99.90;34.00;101841.00;;;;5051164;28;20214;-65
2023/08/11 14:54:58;;;;;;;0.43;0.30;;;29.80;99.90;32.70;101838.00;;;;5051504;28;20201;-65
2023/08/11 14:57:27;;;;;;;6.25;2.85;;;29.40;99.90;32.00;101802.00;;;;5034858;28;20191;-66
2023/08/11 15:00:08;;;;;;;0.10;0.10;;;28.90;99.90;32.90;101784.00;;;;5032436;28;20212;-66
2023/08/11 15:02:35;;;;;;;0.10;0.10;;;28.90;99.90;32.90;101791.00;;;;5032542;28;20194;-65
2023/08/11 15:05:04;;;;;;;0.20;0.20;;;29.00;99.90;33.70;101799.00;;;;5035023;28;20182;-65
2023/08/11 15:07:36;;;;;;;1.35;1.10;;;29.30;99.90;32.90;101796.00;;;;5034771;28;20175;-65
2023/08/11 15:10:03;;;;;;;0.10;0.10;;;29.30;99.90;33.10;101789.00;;;;5034697;28;20209;-65
2023/08/11 15:12:35;;;;;;;3.92;1.08;;;29.30;99.90;30.60;101720.00;;;;5051441;28;20704;-65
2023/08/11 15:15:05;;;;;;;0.10;0.10;;;28.20;99.90;32.40;101709.00;;;;5050147;28;20182;-65
2023/08/11 15:17:36;;;;;;;0.10;0.10;;;28.50;99.90;32.90;101760.00;;;;5041351;28;20178;-65
2023/08/11 15:20:02;;;;;;;0.65;0.65;;;28.90;99.90;31.10;101722.00;;;;5029817;28;20178;-65
2023/08/11 15:22:31;;;;;;;0.10;0.10;;;28.20;99.90;31.70;101715.00;;;;5055025;28;20193;-65
2023/08/11 15:25:08;;;;;;;0.65;0.65;;;28.30;99.90;32.40;101723.00;;;;5038609;28;20607;-65
2023/08/11 15:27:42;;;;;;;0.10;0.10;;;28.60;99.90;32.80;101712.00;;;;5038199;28;20538;-65
2023/08/11 15:30:10;;;;;;;0.25;0.25;;;28.80;99.90;32.80;101724.00;;;;5021711;28;20264;-65
2023/08/11 15:32:38;;;;;;;0.10;0.10;;;28.90;99.90;33.30;101743.00;;;;5054646;28;20213;-65
2023/08/11 15:35:10;;;;;;;5.38;2.20;;;29.20;99.90;31.60;101760.00;;;;5055991;28;20289;-65
2023/08/11 15:37:36;;;;;;;9.57;2.65;;;28.90;99.90;29.00;101648.00;;;;5025193;28;20186;-65
2023/08/11 15:40:09;;;;;;;0.40;0.40;;;27.40;99.90;29.60;101676.00;;;;5054678;28;20702;-65
2023/08/11 15:42:35;;;;;;;0.55;0.55;;;27.00;99.90;29.30;101678.00;;;;5054488;28;20532;-65
2023/08/11 15:45:07;;;;;;;0.10;0.10;;;26.70;99.90;31.00;101698.00;;;;5053995;28;20288;-65
2023/08/11 15:47:36;;;;;;;0.20;0.20;;;27.20;99.90;30.90;101700.00;;;;5034883;28;20198;-65
2023/08/11 15:50:08;;;;;;;0.10;0.10;;;27.50;99.90;31.60;101701.00;;;;5049729;28;21031;-65
2023/08/11 15:52:34;;;;;;;0.32;0.32;;;27.80;99.90;31.10;101703.00;;;;5054386;28;20575;-65
2023/08/11 15:55:06;;;;;;;0.50;0.43;;;27.80;99.90;30.80;101705.00;;;;5037827;28;20716;-65
2023/08/11 15:57:35;;;;;;;0.20;0.20;;;27.80;99.90;31.60;101707.00;;;;5050924;28;20175;-65
2023/08/11 16:00:07;;;;;;;0.17;0.17;;;27.90;99.90;32.00;101728.00;;;;5028201;28;20193;-65
2023/08/11 16:02:33;;;;;;;0.38;0.38;;;28.10;99.90;30.60;101699.00;;;;5055565;28;20182;-65
2023/08/11 16:05:03;;;;;;;1.77;1.55;;;27.70;99.90;31.00;101719.00;;;;5036694;28;20590;-65
2023/08/11 16:07:29;;;;;;;0.20;0.20;;;27.70;99.90;30.10;101700.00;;;;5037471;28;20193;-65
2023/08/11 16:10:04;;;;;;;0.43;0.43;;;27.30;99.90;30.10;101698.00;;;;5054720;28;20189;-65
2023/08/11 16:12:31;;;;;;;2.45;1.55;;;27.00;99.90;30.80;101699.00;;;;5053981;28;20241;-65
2023/08/11 16:15:07;;;;;;;0.20;0.20;;;27.20;99.90;31.20;101722.00;;;;5054045;28;20397;-65
2023/08/11 16:17:34;;;;;;;0.50;0.50;;;27.40;99.90;31.20;101697.00;;;;5053634;28;20275;-65
2023/08/11 16:20:07;;;;;;;0.65;0.30;;;27.60;99.90;30.80;101714.00;;;;5054744;28;20204;-65
2023/08/11 16:22:39;;;;;;;0.30;0.30;;;27.40;99.90;30.20;101701.00;;;;5037490;28;20214;-65
2023/08/11 16:25:11;;;;;;;5.07;3.80;;;27.10;99.90;29.70;101693.00;;;;5023314;28;20174;-65
2023/08/11 16:27:37;;;;;;;0.10;0.10;;;27.00;99.90;30.30;101702.00;;;;5031095;28;20315;-65
2023/08/11 16:30:10;;;;;;;2.85;1.58;;;26.80;99.90;30.30;101682.00;;;;5053686;28;20188;-65
2023/08/11 16:32:39;;;;;;;0.10;0.10;;;26.90;99.90;30.60;101700.00;;;;5036978;28;20285;-65
2023/08/11 16:35:08;;;;;;;0.10;0.10;;;27.00;99.90;30.50;101707.00;;;;5043836;28;20687;-65
2023/08/11 16:37:34;;;;;;;0.45;0.45;;;27.10;99.90;28.60;101693.00;;;;5036666;28;20165;-65
2023/08/11 16:40:09;;;;;;;3.92;2.33;;;26.50;99.90;28.40;101688.00;;;;5040590;28;20237;-65
2023/08/11 16:42:38;;;;;;;1.02;0.85;;;26.00;99.90;29.00;101694.00;;;;5036809;28;20189;-65
2023/08/11 16:45:05;;;;;;;5.18;2.03;;;25.80;99.90;27.30;101683.00;;;;5037432;28;20178;-65
2023/08/11 16:47:31;;;;;;;1.70;1.52;;;25.30;99.90;28.00;101703.00;;;;5036840;28;20189;-65
2023/08/11 16:50:02;;;;;;;0.20;0.20;;;25.40;99.90;28.70;101672.00;;;;5028591;28;20178;-65
2023/08/11 16:52:28;;;;;;;0.88;0.80;;;25.50;99.90;28.80;101690.00;;;;5034234;28;20664;-65
2023/08/11 16:55:02;;;;;;;0.35;0.35;;;25.70;99.90;28.30;101674.00;;;;5053189;28;20257;-65
2023/08/11 16:57:34;;;;;;;0.10;0.10;;;25.50;99.90;28.50;101692.00;;;;5037107;28;20595;-65
2023/08/11 17:00:07;;;;;;;0.10;0.10;;;25.40;99.90;29.00;101692.00;;;;5026225;28;20222;-65
2023/08/11 17:02:33;;;;;;;1.65;1.20;;;25.50;99.90;27.00;101671.00;;;;5036213;28;20273;-65
2023/08/11 17:05:02;;;;;;;0.73;0.65;;;25.00;99.90;26.90;101667.00;;;;5053310;28;20261;-65
2023/08/11 17:07:28;;;;;;;0.50;0.50;;;24.70;99.90;27.30;101641.00;;;;5036669;28;20179;-65
2023/08/11 17:10:05;;;;;;;0.73;0.73;;;24.70;99.90;27.20;101652.00;;;;5053503;28;20590;-65
2023/08/11 17:12:31;;;;;;;0.35;0.35;;;24.60;99.90;27.10;101652.00;;;;5030132;28;20214;-65
2023/08/11 17:14:58;;;;;;;0.45;0.45;;;24.40;99.90;27.50;101645.00;;;;5032945;28;20202;-65
2023/08/11 17:17:28;;;;;;;2.25;2.05;;;24.40;99.90;28.20;101650.00;;;;5036082;28;20274;-65
2023/08/11 17:19:54;;;;;;;0.20;0.20;;;24.60;99.90;28.10;101650.00;;;;5035912;28;20185;-65
2023/08/11 17:22:20;;;;;;;0.10;0.10;;;24.60;99.90;28.40;101634.00;;;;5052553;28;20656;-65
2023/08/11 17:24:50;;;;;;;7.03;1.95;;;24.70;99.90;29.30;101654.00;;;;5032978;28;20187;-65
2023/08/11 17:27:19;;;;;;;0.10;0.10;;;25.00;99.90;30.10;101648.00;;;;5051093;28;20186;-65
2023/08/11 17:29:50;;;;;;;0.15;0.15;;;25.30;99.90;30.20;101661.00;;;;5035725;28;20182;-66
2023/08/11 17:32:19;;;;;;;0.30;0.30;;;25.60;99.90;30.20;101663.00;;;;5035590;28;20206;-65
2023/08/11 17:34:45;;;;;;;0.10;0.10;;;25.80;99.90;30.30;101666.00;;;;5026277;28;20182;-65
2023/08/11 17:37:16;;;;;;;0.13;0.13;;;25.70;99.90;29.60;101666.00;;;;5034865;28;20899;-65
2023/08/11 17:39:42;;;;;;;0.22;0.22;;;25.60;99.90;28.40;101659.00;;;;5052769;28;20192;-65
2023/08/11 17:42:19;;;;;;;0.73;0.73;;;25.20;99.90;29.60;101658.00;;;;5052256;28;20193;-65
2023/08/11 17:44:45;;;;;;;0.20;0.20;;;25.20;99.90;29.40;101676.00;;;;5036510;28;20213;-65
2023/08/11 17:47:17;;;;;;;1.05;1.05;;;25.30;99.90;28.90;101672.00;;;;5052062;28;20236;-65
2023/08/11 17:49:43;;;;;;;0.10;0.10;;;25.00;99.90;27.50;101662.00;;;;5026433;28;20261;-65
2023/08/11 17:52:12;;;;;;;0.10;0.10;;;24.60;99.90;28.70;101678.00;;;;5036202;28;20233;-65
2023/08/11 17:54:38;;;;;;;0.47;0.47;;;24.70;99.90;27.30;101662.00;;;;5031219;28;20201;-65
2023/08/11 17:57:09;;;;;;;0.10;0.10;;;24.30;99.90;28.10;101675.00;;;;5023383;28;20251;-66
2023/08/11 17:59:35;;;;;;;5.40;1.13;;;24.40;99.90;28.30;101676.00;;;;5052031;28;20191;-65
2023/08/11 18:02:07;;;;;;;0.10;0.10;;;24.40;99.90;29.80;101669.00;;;;5031741;28;20186;-65
2023/08/11 18:04:34;;;;;;;0.10;0.10;;;25.00;99.90;29.90;101676.00;;;;5051902;28;20189;-65
2023/08/11 18:07:06;;;;;;;0.20;0.20;;;25.20;99.90;30.20;101673.00;;;;5024069;28;20228;-65
2023/08/11 18:09:32;;;;;;;0.32;0.30;;;25.60;99.90;28.10;101655.00;;;;5045671;28;20551;-65
2023/08/11 18:12:01;;;;;;;0.32;0.32;;;24.90;99.90;27.30;101653.00;;;;5035190;28;20206;-65